createdAt,value
2019-03-24T04:37:10.090Z,164.35
2019-03-24T04:39:39.550Z,158.57
2019-03-24T04:42:09.574Z,157.35
2019-03-24T04:44:39.052Z,163.18
2019-03-24T04:47:16.306Z,94.37
2019-03-24T04:49:39.614Z,124.12
2019-03-24T04:52:09.113Z,161.75
2019-03-24T04:54:38.722Z,156.43
2019-03-24T04:57:08.317Z,164.13
2019-03-24T04:59:37.822Z,161.40
2019-03-24T05:02:07.336Z,99.95
2019-03-24T05:04:36.841Z,155.18
2019-03-24T05:07:06.374Z,62.30
2019-03-24T05:09:36.187Z,127.90
2019-03-24T05:12:05.572Z,160.90
2019-03-24T05:14:34.979Z,166.73
2019-03-24T05:17:04.437Z,203.05
2019-03-24T05:19:33.993Z,160.88
2019-03-24T05:22:03.598Z,168.22
2019-03-24T05:24:33.040Z,65.97
2019-03-24T05:27:03.923Z,164.35
2019-03-24T05:29:33.417Z,163.22
2019-03-24T05:32:04.137Z,119.77
2019-03-24T05:34:33.737Z,118.47
2019-03-24T05:37:03.343Z,158.27
2019-03-24T05:39:32.849Z,159.57
2019-03-24T05:42:03.033Z,35.60
2019-03-24T05:44:32.485Z,82.12
2019-03-24T05:47:01.961Z,185.40
2019-03-24T05:49:32.304Z,161.12
2019-03-24T05:52:03.140Z,166.05
2019-03-24T05:54:45.381Z,155.55
2019-03-24T05:57:23.299Z,151.12
2019-03-24T05:59:52.813Z,57.85
2019-03-24T06:02:23.074Z,30.55
2019-03-24T06:04:53.870Z,161.15
2019-03-24T06:07:23.353Z,173.22
2019-03-24T06:09:52.822Z,58.87
2019-03-24T06:12:22.385Z,168.55
2019-03-24T06:14:51.946Z,134.57
2019-03-24T06:17:21.471Z,180.37
2019-03-24T06:19:50.977Z,62.70
2019-03-24T06:22:23.182Z,188.72
2019-03-24T06:24:52.574Z,111.80
2019-03-24T06:27:21.990Z,153.35
2019-03-24T06:29:51.393Z,171.82
2019-03-24T06:32:42.483Z,137.40
2019-03-24T06:35:12.194Z,151.93
2019-03-24T06:37:42.076Z,230.77
2019-03-24T06:40:11.738Z,246.55
2019-03-24T06:42:44.766Z,192.85
2019-03-24T06:45:14.518Z,262.20
2019-03-24T06:47:45.360Z,252.75
2019-03-24T06:50:14.922Z,242.13
2019-03-24T06:52:44.416Z,238.82
2019-03-24T06:55:13.894Z,194.28
2019-03-24T06:57:44.010Z,241.80
2019-03-24T07:00:14.218Z,190.88
2019-03-24T07:02:50.935Z,252.70
2019-03-24T07:05:23.397Z,233.50
2019-03-24T07:07:56.601Z,175.72
2019-03-24T07:10:26.162Z,245.70
2019-03-24T07:12:55.732Z,239.78
2019-03-24T07:15:25.289Z,225.03
2019-03-24T07:17:54.829Z,182.17
2019-03-24T07:20:24.307Z,181.00
2019-03-24T07:22:54.015Z,250.22
2019-03-24T07:25:23.518Z,248.30
2019-03-24T07:27:53.025Z,248.53
2019-03-24T07:30:22.588Z,249.12
2019-03-24T07:32:52.086Z,238.70
2019-03-24T07:35:21.630Z,250.07
2019-03-24T07:37:51.070Z,253.90
2019-03-24T07:40:20.671Z,254.85
2019-03-24T07:42:50.140Z,248.18
2019-03-24T07:45:19.630Z,252.65
2019-03-24T07:47:49.213Z,256.15
2019-03-24T07:50:18.825Z,269.90
2019-03-24T07:52:48.361Z,299.70
2019-03-24T07:55:17.836Z,311.92
2019-03-24T07:57:47.293Z,279.25
2019-03-24T08:00:29.169Z,291.02
2019-03-24T08:02:58.686Z,285.43
2019-03-24T08:05:28.200Z,299.02
2019-03-24T08:07:57.711Z,288.68
2019-03-24T08:10:28.398Z,295.75
2019-03-24T08:12:58.325Z,288.18
2019-03-24T08:15:27.982Z,297.48
2019-03-24T08:17:57.595Z,303.02
2019-03-24T08:20:27.203Z,310.38
2019-03-24T08:22:58.094Z,303.95
2019-03-24T08:25:29.061Z,302.62
2019-03-24T08:27:58.573Z,306.70
2019-03-24T08:30:35.771Z,321.55
2019-03-24T08:33:05.751Z,325.45
2019-03-24T08:36:02.518Z,293.65
2019-03-24T08:38:31.997Z,291.88
2019-03-24T08:41:01.474Z,302.27
2019-03-24T08:43:30.943Z,309.62
2019-03-24T08:46:00.672Z,315.82
2019-03-24T08:48:40.127Z,317.13
2019-03-24T08:51:01.230Z,332.02
2019-03-24T08:53:30.672Z,337.93
2019-03-24T08:56:00.134Z,330.00
2019-03-24T08:58:29.660Z,337.88
2019-03-24T09:00:59.082Z,347.70
2019-03-24T09:03:28.663Z,335.60
2019-03-24T09:05:58.053Z,342.23
2019-03-24T09:08:27.553Z,354.55
2019-03-24T09:10:58.293Z,352.98
2019-03-24T09:13:27.830Z,360.17
2019-03-24T09:15:57.517Z,351.00
2019-03-24T09:18:26.968Z,363.65
2019-03-24T09:20:56.416Z,378.67
2019-03-24T09:23:25.942Z,361.00
2019-03-24T09:25:55.421Z,351.15
2019-03-24T09:28:24.968Z,349.37
2019-03-24T09:30:54.555Z,364.72
2019-03-24T09:33:24.130Z,371.10
2019-03-24T09:35:53.674Z,356.10
2019-03-24T09:38:23.107Z,364.45
2019-03-24T09:40:52.612Z,366.45
2019-03-24T09:43:22.081Z,427.15
2019-03-24T09:45:51.621Z,348.62
2019-03-24T09:48:21.128Z,357.77
2019-03-24T09:50:51.350Z,344.62
2019-03-24T09:53:20.865Z,353.52
2019-03-24T09:55:50.524Z,352.60
2019-03-24T09:58:20.048Z,355.10
2019-03-24T10:00:49.575Z,361.65
2019-03-24T10:03:21.283Z,373.30
2019-03-24T10:05:50.791Z,358.50
2019-03-24T10:08:20.613Z,347.98
2019-03-24T10:10:50.061Z,370.67
2019-03-24T10:13:19.548Z,362.00
2019-03-24T10:15:51.120Z,375.90
2019-03-24T10:18:20.545Z,370.65
2019-03-24T10:20:50.047Z,371.85
2019-03-24T10:23:19.580Z,374.70
2019-03-24T10:25:49.038Z,357.73
2019-03-24T10:28:18.478Z,363.43
2019-03-24T10:30:48.013Z,364.23
2019-03-24T10:33:17.593Z,384.07
2019-03-24T10:35:47.191Z,391.20
2019-03-24T10:38:16.816Z,393.60
2019-03-24T10:40:46.302Z,392.75
2019-03-24T10:43:16.990Z,392.57
2019-03-24T10:45:46.521Z,395.25
2019-03-24T10:48:15.930Z,399.15
2019-03-24T10:53:41.293Z,406.90
2019-03-24T10:56:10.835Z,398.65
2019-03-24T10:58:40.682Z,400.87
2019-03-24T11:01:13.199Z,396.70
2019-03-24T11:03:42.742Z,404.05
2019-03-24T11:06:12.237Z,420.62
2019-03-24T11:08:41.721Z,426.50
2019-03-24T11:11:11.269Z,437.90
2019-03-24T11:13:40.745Z,434.20
2019-03-24T11:16:10.514Z,432.43
2019-03-24T11:18:40.124Z,447.23
2019-03-24T11:21:11.028Z,440.68
2019-03-24T11:23:40.485Z,444.05
2019-03-24T11:26:10.045Z,449.80
2019-03-24T11:28:39.573Z,440.82
2019-03-24T11:31:09.162Z,441.40
2019-03-24T11:33:38.647Z,455.70
2019-03-24T11:36:08.130Z,444.88
2019-03-24T11:38:37.535Z,446.85
2019-03-24T11:41:07.064Z,439.65
2019-03-24T11:43:36.583Z,442.63
2019-03-24T11:46:06.237Z,451.95
2019-03-24T11:48:35.852Z,453.73
2019-03-24T11:51:05.696Z,471.70
2019-03-24T11:53:37.611Z,462.40
2019-03-24T11:56:08.953Z,462.30
2019-03-24T11:58:38.446Z,465.25
2019-03-24T12:01:07.967Z,465.00
2019-03-24T12:03:40.260Z,478.20
2019-03-24T12:06:14.397Z,462.15
2019-03-24T12:08:41.003Z,458.80
2019-03-24T12:11:10.405Z,477.62
2019-03-24T12:13:39.959Z,469.85
2019-03-24T12:16:09.450Z,448.10
2019-03-24T12:18:39.030Z,449.65
2019-03-24T12:21:08.542Z,467.00
2019-03-24T12:23:38.020Z,475.02
2019-03-24T12:26:07.551Z,460.07
2019-03-24T12:28:37.033Z,463.68
2019-03-24T12:31:06.615Z,469.70
2019-03-24T12:33:36.182Z,471.10
2019-03-24T12:36:05.778Z,478.50
2019-03-24T12:38:35.257Z,474.68
2019-03-24T12:41:04.800Z,462.18
2019-03-24T12:43:34.399Z,465.75
2019-03-24T12:46:04.013Z,475.42
2019-03-24T12:48:33.653Z,470.75
2019-03-24T12:51:03.254Z,469.70
2019-03-24T12:53:32.760Z,460.70
2019-03-24T12:56:02.465Z,444.52
2019-03-24T12:58:32.046Z,470.90
2019-03-24T13:01:01.500Z,452.15
2019-03-24T13:03:30.908Z,474.23
2019-03-24T13:06:00.429Z,470.75
2019-03-24T13:08:31.678Z,466.23
2019-03-24T13:11:01.180Z,472.55
2019-03-24T13:13:30.705Z,483.42
2019-03-24T13:16:00.213Z,497.13
2019-03-24T13:18:29.697Z,484.73
2019-03-24T13:20:59.305Z,477.25
2019-03-24T13:23:28.786Z,493.50
2019-03-24T13:25:58.368Z,492.07
2019-03-24T13:28:27.898Z,484.55
2019-03-24T13:30:57.353Z,482.40
2019-03-24T13:33:26.984Z,474.92
2019-03-24T13:36:07.630Z,476.55
2019-03-24T13:38:37.220Z,479.30
2019-03-24T13:41:07.301Z,478.92
2019-03-24T13:43:36.713Z,483.00
2019-03-24T13:46:06.329Z,485.17
2019-03-24T13:48:35.956Z,483.75
2019-03-24T13:51:05.505Z,488.00
2019-03-24T13:53:35.028Z,481.20
2019-03-24T13:56:04.527Z,480.25
2019-03-24T13:58:34.018Z,472.77
2019-03-24T14:01:05.286Z,468.63
2019-03-24T14:03:34.747Z,470.10
2019-03-24T14:06:04.292Z,476.25
2019-03-24T14:08:33.870Z,475.40
2019-03-24T14:11:03.297Z,467.60
2019-03-24T14:13:33.172Z,478.32
2019-03-24T14:16:02.741Z,460.87
2019-03-24T14:18:32.166Z,478.58
2019-03-24T14:21:01.593Z,480.35
2019-03-24T14:23:31.197Z,460.25
2019-03-24T14:26:00.720Z,477.67
2019-03-24T14:28:30.361Z,473.47
2019-03-24T14:30:59.885Z,470.92
2019-03-24T14:33:29.465Z,468.80
2019-03-24T14:35:59.042Z,475.53
2019-03-24T14:38:28.534Z,466.10
2019-03-24T14:40:58.185Z,475.83
2019-03-24T14:43:27.793Z,471.33
2019-03-24T14:45:57.368Z,468.48
2019-03-24T14:48:26.948Z,496.30
2019-03-24T14:50:56.425Z,475.12
2019-03-24T14:53:25.973Z,487.65
2019-03-24T14:55:55.388Z,452.80
2019-03-24T14:58:24.949Z,456.80
2019-03-24T15:00:54.616Z,459.93
2019-03-24T15:03:24.093Z,462.82
2019-03-24T15:05:54.914Z,483.60
2019-03-24T15:08:24.516Z,475.80
2019-03-24T15:10:53.994Z,466.62
2019-03-24T15:13:23.705Z,477.65
2019-03-24T15:15:53.249Z,474.92
2019-03-24T15:18:22.683Z,475.27
2019-03-24T15:20:52.111Z,464.25
2019-03-24T15:23:21.549Z,481.00
2019-03-24T15:25:50.982Z,476.25
2019-03-24T15:28:20.377Z,479.62
2019-03-24T15:30:49.892Z,477.25
2019-03-24T15:33:19.357Z,489.45
2019-03-24T15:35:48.846Z,486.12
2019-03-24T15:38:18.258Z,479.95
2019-03-24T15:40:49.463Z,465.58
2019-03-24T15:43:19.282Z,475.27
2019-03-24T15:45:48.821Z,472.70
2019-03-24T15:48:18.299Z,480.95
2019-03-24T15:50:47.748Z,440.32
2019-03-24T15:53:17.358Z,452.37
2019-03-24T15:55:46.903Z,454.25
2019-03-24T15:58:16.384Z,455.35
2019-03-24T16:00:47.453Z,430.90
2019-03-24T16:03:17.333Z,446.95
2019-03-24T16:05:46.830Z,455.70
2019-03-24T16:08:16.433Z,439.05
2019-03-24T16:10:45.965Z,418.57
2019-03-24T16:13:15.387Z,422.17
2019-03-24T16:15:44.977Z,421.03
2019-03-24T16:18:14.619Z,422.00
2019-03-24T16:20:44.044Z,426.37
2019-03-24T16:23:13.584Z,413.48
2019-03-24T16:25:42.998Z,411.50
2019-03-24T16:28:12.424Z,414.23
2019-03-24T16:30:42.022Z,418.48
2019-03-24T16:33:11.750Z,413.22
2019-03-24T16:35:41.263Z,400.90
2019-03-24T16:38:10.762Z,407.25
2019-03-24T16:40:41.456Z,403.25
2019-03-24T16:43:11.235Z,421.83
2019-03-24T16:45:40.670Z,407.12
2019-03-24T16:48:10.152Z,402.02
2019-03-24T16:50:39.589Z,404.02
2019-03-24T16:53:09.093Z,398.38
2019-03-24T16:55:38.664Z,396.63
2019-03-24T16:58:08.312Z,393.15
2019-03-24T17:00:37.857Z,383.40
2019-03-24T17:03:07.413Z,386.87
2019-03-24T17:05:36.927Z,378.67
2019-03-24T17:08:06.355Z,398.25
2019-03-24T17:10:35.913Z,376.58
2019-03-24T17:13:05.404Z,384.52
2019-03-24T17:15:34.917Z,373.40
2019-03-24T17:18:04.749Z,385.75
2019-03-24T17:20:34.299Z,376.15
2019-03-24T17:23:04.097Z,379.02
2019-03-24T17:25:33.601Z,388.55
2019-03-24T17:28:03.185Z,363.87
2019-03-24T17:30:32.797Z,361.62
2019-03-24T17:33:02.323Z,373.55
2019-03-24T17:35:31.850Z,375.07
2019-03-24T17:38:01.269Z,370.10
2019-03-24T17:40:30.702Z,365.48
2019-03-24T17:43:00.206Z,370.10
2019-03-24T17:45:29.820Z,362.68
2019-03-24T17:47:59.209Z,351.00
2019-03-24T17:50:28.673Z,348.77
2019-03-24T17:52:58.201Z,349.60
2019-03-24T17:55:29.915Z,334.50
2019-03-24T17:57:58.895Z,338.52
2019-03-24T18:00:38.309Z,336.77
2019-03-24T18:03:07.950Z,344.85
2019-03-24T18:05:38.813Z,340.10
2019-03-24T18:08:08.378Z,348.23
2019-03-24T18:10:37.972Z,349.65
2019-03-24T18:13:07.533Z,347.15
2019-03-24T18:15:37.006Z,343.12
2019-03-24T18:18:06.616Z,336.90
2019-03-24T18:20:36.384Z,330.32
2019-03-24T18:23:05.924Z,332.45
2019-03-24T18:25:35.300Z,333.13
2019-03-24T18:28:04.971Z,317.70
2019-03-24T18:30:34.529Z,331.25
2019-03-24T18:33:04.069Z,317.40
2019-03-24T18:35:33.957Z,322.40
2019-03-24T18:38:03.528Z,335.52
2019-03-24T18:40:33.003Z,339.12
2019-03-24T18:43:02.498Z,329.10
2019-03-24T18:45:32.049Z,331.70
2019-03-24T18:48:01.587Z,340.75
2019-03-24T18:50:33.328Z,316.85
2019-03-24T18:53:02.912Z,327.90
2019-03-24T18:55:32.380Z,305.25
2019-03-24T18:58:02.366Z,310.95
2019-03-24T19:00:34.704Z,309.25
2019-03-24T19:03:04.268Z,302.27
2019-03-24T19:05:37.124Z,298.43
2019-03-24T19:08:06.749Z,290.48
2019-03-24T19:10:36.253Z,295.60
2019-03-24T19:13:06.024Z,285.85
2019-03-24T19:15:37.379Z,291.50
2019-03-24T19:18:06.809Z,316.77
2019-03-24T19:20:36.261Z,298.55
2019-03-24T19:23:05.800Z,293.73
2019-03-24T19:25:35.569Z,299.25
2019-03-24T19:28:05.106Z,299.77
2019-03-24T19:30:36.723Z,313.07
2019-03-24T19:33:06.380Z,300.70
2019-03-24T19:35:35.923Z,313.80
2019-03-24T19:38:05.553Z,302.85
2019-03-24T19:40:35.284Z,291.15
2019-03-24T19:43:04.886Z,302.65
2019-03-24T19:45:34.353Z,285.98
2019-03-24T19:48:03.827Z,305.57
2019-03-24T19:50:33.276Z,327.22
2019-03-24T19:53:02.676Z,318.35
2019-03-24T19:55:32.140Z,350.22
2019-03-24T19:58:01.546Z,317.93
2019-03-24T20:00:31.068Z,339.63
2019-03-24T20:03:02.714Z,368.75
2019-03-24T20:05:32.186Z,343.77
2019-03-24T20:08:01.701Z,344.10
2019-03-24T20:10:31.246Z,339.45
2019-03-24T20:13:00.690Z,349.37
2019-03-24T20:15:30.071Z,330.55
2019-03-24T20:17:59.637Z,330.10
2019-03-24T20:20:29.205Z,341.60
2019-03-24T20:22:58.731Z,318.48
2019-03-24T20:25:28.214Z,339.15
2019-03-24T20:27:58.039Z,345.12
2019-03-24T20:30:27.724Z,318.15
2019-03-24T20:32:57.144Z,311.30
2019-03-24T20:35:26.674Z,353.20
2019-03-24T20:37:56.060Z,316.00
2019-03-24T20:40:25.724Z,281.47
2019-03-24T20:42:55.192Z,308.25
2019-03-24T20:45:24.764Z,321.98
2019-03-24T20:47:54.359Z,261.32
2019-03-24T20:50:23.804Z,249.18
2019-03-24T20:53:03.659Z,307.25
2019-03-24T20:55:24.460Z,292.77
2019-03-24T20:57:53.900Z,307.37
2019-03-24T21:00:36.901Z,315.02
2019-03-24T21:03:10.793Z,271.98
2019-03-24T21:05:41.053Z,347.30
2019-03-24T21:08:10.846Z,344.23
2019-03-24T21:10:41.915Z,302.98
2019-03-24T21:13:11.695Z,338.43
2019-03-24T21:15:41.189Z,332.73
2019-03-24T21:18:10.687Z,323.20
2019-03-24T21:20:40.202Z,313.15
2019-03-24T21:23:09.699Z,297.98
2019-03-24T21:25:39.401Z,304.65
2019-03-24T21:28:08.867Z,310.13
2019-03-24T21:30:39.960Z,332.77
2019-03-24T21:33:09.532Z,341.93
2019-03-24T21:35:38.927Z,342.52
2019-03-24T21:38:08.631Z,290.32
2019-03-24T21:40:38.262Z,350.13
2019-03-24T21:43:07.767Z,269.10
2019-03-24T21:45:37.432Z,363.18
2019-03-24T21:48:06.992Z,348.30
2019-03-24T21:50:36.458Z,256.38
2019-03-24T21:53:06.936Z,269.32
2019-03-24T21:55:36.443Z,338.10
2019-03-24T21:58:06.285Z,258.40
2019-03-24T22:00:37.198Z,346.45
2019-03-24T22:03:07.280Z,326.32
2019-03-24T22:05:37.319Z,309.18
2019-03-24T22:08:07.348Z,322.20
2019-03-24T22:10:36.880Z,306.20
2019-03-24T22:13:06.736Z,298.35
2019-03-24T22:15:36.209Z,293.80
2019-03-24T22:18:06.279Z,298.43
2019-03-24T22:20:35.723Z,297.17
2019-03-24T22:23:05.272Z,301.98
2019-03-24T22:25:34.645Z,302.27
2019-03-24T22:28:04.147Z,316.90
2019-03-24T22:30:33.610Z,309.90
2019-03-24T22:33:03.233Z,257.52
2019-03-24T22:35:32.696Z,259.43
2019-03-24T22:38:02.141Z,254.13
2019-03-24T22:40:31.528Z,259.32
2019-03-24T22:43:00.944Z,305.52
2019-03-24T22:45:30.460Z,321.13
2019-03-24T22:47:59.825Z,308.93
2019-03-24T22:50:29.206Z,302.30
2019-03-24T22:52:58.648Z,300.57
2019-03-24T22:55:28.943Z,316.27
2019-03-24T22:57:58.410Z,307.37
2019-03-24T23:00:51.690Z,253.25
2019-03-24T23:03:21.567Z,310.02
2019-03-24T23:05:51.039Z,233.93
2019-03-24T23:08:20.759Z,304.80
2019-03-24T23:10:50.286Z,323.82
2019-03-24T23:13:19.993Z,228.98
2019-03-24T23:15:49.537Z,246.20
2019-03-24T23:18:18.983Z,316.08
2019-03-24T23:20:48.569Z,295.75
2019-03-24T23:23:18.019Z,303.30
2019-03-24T23:25:47.672Z,312.30
2019-03-24T23:28:17.043Z,308.32
2019-03-24T23:30:46.504Z,323.10
2019-03-24T23:33:15.889Z,314.93
2019-03-24T23:35:45.354Z,322.95
2019-03-24T23:38:14.815Z,276.98
2019-03-24T23:40:44.266Z,264.30
2019-03-24T23:43:13.783Z,323.82
2019-03-24T23:45:43.256Z,325.15
2019-03-24T23:48:12.631Z,338.23
2019-03-24T23:50:42.088Z,269.80
2019-03-24T23:53:11.468Z,325.02
2019-03-24T23:55:40.964Z,333.07
2019-03-24T23:58:10.339Z,325.52
